ADDS METAR Data INFO
IDs: Format: Raw Decoded Include TAF

Data at: 0029 UTC 11 Dec 2017

KMTO 102353Z AUTO 29007KT 10SM CLR M01/M04 A3005 RMK AO2 SLP185 T10061044 10056 21006 53033
KMTO 102253Z AUTO 29009KT 10SM CLR 03/M04 A3002 RMK AO2 SLP173 T00281044
KMTO 102153Z AUTO 28011KT 10SM CLR 05/M04 A2998 RMK AO2 SLP160 T00501039
KMTO 102053Z AUTO 25008G18KT 10SM CLR 06/M04 A2995 RMK AO2 SLP149 T00561044 52001
KMTO 101953Z AUTO 10SM CLR 05/M04 A2994 RMK AO2 SLP146 T00501044
KMTO 101853Z AUTO 24013G19KT 10SM CLR 04/M05 A2996 RMK AO2 PRESRR SLP152 T00391050
KMTO 101753Z AUTO 22016G24KT 10SM CLR 03/M05 A2995 RMK AO2 SLP149 T00281050 10028 21050 56028
KMTO 101653Z AUTO 19013KT 10SM CLR 01/M06 A2997 RMK AO2 SLP158 T00111061
KMTO 101553Z AUTO 19011G23KT 10SM CLR M01/M07 A3001 RMK AO2 SLP169 T10061067
KMTO 101453Z AUTO 19015G20KT 10SM BKN090 M03/M07 A3003 RMK AO2 SLP179 T10281072 58018
KMTO 101353Z AUTO 20009KT 10SM BKN100 M04/M07 A3006 RMK AO2 SLP190 T10391072
KMTO 101253Z AUTO 20011KT 10SM OVC110 M04/M08 A3007 RMK AO2 SLP191 T10441078
KMTO 101153Z AUTO 21008KT 10SM OVC110 M05/M08 A3009 RMK AO2 SLP198 T10501078 11050 21067 56011
KMTO 101053Z AUTO 21008KT 10SM BKN110 M06/M08 A3009 RMK AO2 SLP198 T10561078
KMTO 100953Z AUTO 21005KT 10SM BKN110 M06/M08 A3010 RMK AO2 SLP202 T10611083
KMTO 100853Z AUTO 22005KT 10SM CLR M06/M08 A3012 RMK AO2 SLP209 T10611083 56008
KMTO 100753Z AUTO 24005KT 10SM CLR M06/M09 A3013 RMK AO2 SLP211 T10611089
KMTO 100653Z AUTO 25004KT 10SM CLR M06/M09 A3013 RMK AO2 SLP214 T10611094
KMTO 100553Z AUTO 25004KT 10SM CLR M06/M09 A3015 RMK AO2 SLP217 T10611094 11033 21067 400111067 53004
KMTO 100453Z AUTO 25004KT 10SM CLR M06/M09 A3014 RMK AO2 SLP213 T10561089
KMTO 100353Z AUTO 25004KT 10SM CLR M05/M09 A3014 RMK AO2 SLP215 T10501094
KMTO 100253Z AUTO 27004KT 10SM CLR M06/M10 A3013 RMK AO2 SLP214 T10561100 51015
KMTO 100153Z AUTO 28007KT 10SM CLR M07/M09 A3013 RMK AO2 SLP211 T10671094
KMTO 100053Z AUTO 30009KT 10SM CLR M04/M09 A3011 RMK AO2 SLP205 T10441094
KMTO 092353Z AUTO 30013KT 10SM CLR M03/M09 A3009 RMK AO2 SLP197 T10331094 10006 21033 53039
KMTO 092253Z AUTO 32010KT 10SM SCT042 M02/M09 A3005 RMK AO2 PK WND 32026/2203 SLP183 T10221094
KMTO 092153Z AUTO 32018G25KT 10SM BKN044 M01/M09 A3001 RMK AO2 PK WND 33026/2121 SLP170 T10061094
KMTO 092053Z AUTO 33018KT 10SM OVC042 M01/M08 A2997 RMK AO2 PK WND 33030/1955 SLP157 T10061083 53035
KMTO 091953Z AUTO 32019G25KT 10SM OVC042 M01/M08 A2993 RMK AO2 PK WND 33029/1937 SLP143 T10061083
KMTO 091853Z AUTO 33019KT 10SM SCT036 OVC047 00/M07 A2989 RMK AO2 PK WND 32027/1825 SLP128 T00001072
KMTO 091753Z AUTO 31014KT 10SM FEW023 BKN032 OVC041 M01/M04 A2987 RMK AO2 PK WND 31026/1721 SLP121 60000 T10061039 10011 21017 53018
KMTO 091653Z AUTO 31020G27KT 10SM SCT028 SCT045 OVC055 01/M05 A2985 RMK AO2 PK WND 31027/1646 SLP115 T00061050
KMTO 091553Z AUTO 31017G22KT 10SM FEW023 OVC049 00/M04 A2983 RMK AO2 SNB1459E24 SLP109 P0000 T00001044
KMTO 091453Z AUTO 29015KT 10SM SCT022 SCT034 OVC049 M01/M04 A2981 RMK AO2 SLP103 T10061044 53017
KMTO 091446Z AUTO 29016KT 10SM SCT024 OVC047 M01/M04 A2981 RMK AO2 T10061044
KMTO 091413Z AUTO 29012KT 10SM BKN024 OVC048 M01/M04 A2980 RMK AO2 T10111044
KMTO 091402Z AUTO 29015KT 10SM SCT024 OVC047 M01/M04 A2979 RMK AO2 T10111044
KMTO 091353Z AUTO 29012KT 10SM SCT020 BKN026 OVC045 M01/M04 A2979 RMK AO2 SLP095 T10111044
KMTO 091253Z AUTO 28010KT 10SM OVC020 M02/M06 A2977 RMK AO2 SLP090 T10171056